createdAt,value
2023-10-29T05:00:52.166Z,12.19
2023-10-29T05:04:54.778Z,12.10
2023-10-29T05:08:57.641Z,12.14
2023-10-29T05:13:01.007Z,12.06
2023-10-29T05:17:05.286Z,12.07
2023-10-29T05:21:08.958Z,12.12
2023-10-29T05:25:11.793Z,12.09
2023-10-29T05:29:14.610Z,12.05
2023-10-29T05:33:18.627Z,12.01
2023-10-29T05:37:21.292Z,12.00
2023-10-29T05:41:23.934Z,12.03
2023-10-29T05:45:26.551Z,12.09
2023-10-29T05:49:30.511Z,12.14
2023-10-29T05:53:33.375Z,12.11
2023-10-29T05:57:36.062Z,12.19
2023-10-29T06:01:39.656Z,12.27
2023-10-29T06:05:43.766Z,12.30
2023-10-29T06:09:46.355Z,12.33
2023-10-29T06:13:49.111Z,12.36
2023-10-29T06:17:51.811Z,12.42
2023-10-29T06:21:55.892Z,12.42
2023-10-29T06:25:58.545Z,12.51
2023-10-29T06:30:02.111Z,12.59
2023-10-29T06:34:05.532Z,12.68
2023-10-29T06:38:09.566Z,12.68
2023-10-29T06:42:12.170Z,12.74
2023-10-29T06:46:16.342Z,12.84
2023-10-29T06:50:19.349Z,12.98
2023-10-29T06:54:23.388Z,13.06
2023-10-29T06:58:25.988Z,13.15
2023-10-29T07:02:28.672Z,13.29
2023-10-29T07:06:32.163Z,13.36
2023-10-29T07:10:36.380Z,13.46
2023-10-29T07:14:39.048Z,13.57
2023-10-29T07:18:41.851Z,13.65
2023-10-29T07:22:44.603Z,13.66
2023-10-29T07:26:48.536Z,13.71
2023-10-29T07:30:51.137Z,13.71
2023-10-29T07:34:53.761Z,13.71
2023-10-29T07:38:56.438Z,13.68
2023-10-29T07:43:00.494Z,13.77
2023-10-29T07:47:09.078Z,13.71
2023-10-29T07:51:11.719Z,13.79
2023-10-29T07:55:14.325Z,13.69
2023-10-29T07:59:18.255Z,13.70
2023-10-29T08:03:20.954Z,13.75
2023-10-29T08:07:23.864Z,13.69
2023-10-29T08:11:26.496Z,13.70
2023-10-29T08:15:30.451Z,13.66
2023-10-29T08:19:33.096Z,13.64
2023-10-29T08:23:36.422Z,13.66
2023-10-29T08:27:39.099Z,13.63
2023-10-29T08:31:43.085Z,13.62
2023-10-29T08:35:46.525Z,13.69
2023-10-29T08:39:49.198Z,13.65
2023-10-29T08:43:53.350Z,13.75
2023-10-29T08:47:57.334Z,13.88
2023-10-29T08:52:00.108Z,13.98
2023-10-29T08:56:04.632Z,14.09
2023-10-29T09:00:08.464Z,14.23
2023-10-29T09:04:13.298Z,14.37
2023-10-29T09:08:16.192Z,14.32
2023-10-29T09:12:18.861Z,14.29
2023-10-29T09:16:21.750Z,14.25
2023-10-29T09:20:27.174Z,14.29
2023-10-29T09:24:29.993Z,14.23
2023-10-29T09:28:32.659Z,14.34
2023-10-29T09:32:36.596Z,14.38
2023-10-29T09:36:40.906Z,14.32
2023-10-29T09:40:43.583Z,14.37
2023-10-29T09:44:50.749Z,14.33
2023-10-29T09:48:55.775Z,14.38
2023-10-29T09:53:02.402Z,14.30
2023-10-29T09:57:05.090Z,14.17
2023-10-29T10:01:07.798Z,14.22
2023-10-29T10:05:11.139Z,14.39
2023-10-29T10:09:15.463Z,14.57
2023-10-29T10:13:18.195Z,14.73
2023-10-29T10:17:20.847Z,14.72
2023-10-29T10:21:24.896Z,14.69
2023-10-29T10:25:30.443Z,14.73
2023-10-29T10:29:33.772Z,14.78
2023-10-29T10:33:36.257Z,14.72
2023-10-29T10:37:54.156Z,14.71
2023-10-29T10:42:00.514Z,14.83
2023-10-29T10:46:07.657Z,14.78
2023-10-29T10:50:10.805Z,14.88
2023-10-29T10:54:14.090Z,14.93
2023-10-29T10:58:20.070Z,14.98
2023-10-29T11:02:24.684Z,15.03
2023-10-29T11:06:27.661Z,15.11
2023-10-29T11:10:30.941Z,15.06
2023-10-29T11:14:34.795Z,15.20
2023-10-29T11:18:38.777Z,15.31
2023-10-29T11:22:49.447Z,15.20
2023-10-29T11:26:52.224Z,15.14
2023-10-29T11:31:15.717Z,15.08
2023-10-29T11:35:20.249Z,14.93
2023-10-29T11:39:33.741Z,15.02
2023-10-29T11:43:36.325Z,15.05
2023-10-29T11:48:11.572Z,15.05
2023-10-29T11:52:14.266Z,15.15
2023-10-29T11:56:18.334Z,15.17
2023-10-29T12:00:21.570Z,15.15
2023-10-29T12:04:31.723Z,15.19
2023-10-29T12:08:34.729Z,15.18
2023-10-29T12:12:39.218Z,15.08
2023-10-29T12:16:43.274Z,15.09
2023-10-29T12:20:48.251Z,15.05
2023-10-29T12:24:54.850Z,15.02
2023-10-29T12:28:57.622Z,14.97
2023-10-29T12:33:21.751Z,14.97
2023-10-29T12:37:27.370Z,14.97
2023-10-29T12:41:33.113Z,15.02
2023-10-29T12:45:36.820Z,14.99
2023-10-29T12:49:39.738Z,14.92
2023-10-29T12:53:43.759Z,14.92
2023-10-29T12:57:46.842Z,14.97
2023-10-29T13:01:51.167Z,14.97
2023-10-29T13:05:55.782Z,14.95
2023-10-29T13:10:05.293Z,15.04
2023-10-29T13:14:09.239Z,15.06
2023-10-29T13:18:12.427Z,15.01
2023-10-29T13:22:15.119Z,14.90
2023-10-29T13:26:19.083Z,14.85
2023-10-29T13:30:21.739Z,14.85
2023-10-29T13:34:24.714Z,14.78
2023-10-29T13:38:27.308Z,14.76
2023-10-29T13:42:31.268Z,14.76
2023-10-29T13:46:33.966Z,14.68
2023-10-29T13:50:40.790Z,14.59
2023-10-29T13:54:44.158Z,14.60
2023-10-29T13:58:48.027Z,14.48
2023-10-29T14:02:53.015Z,14.32
2023-10-29T14:06:57.250Z,14.16
2023-10-29T14:10:59.855Z,14.22
2023-10-29T14:15:04.034Z,14.12
2023-10-29T14:19:07.282Z,14.09
2023-10-29T14:23:10.306Z,14.09
2023-10-29T14:27:12.919Z,14.11
2023-10-29T14:31:16.993Z,14.16
2023-10-29T14:35:19.682Z,14.12
2023-10-29T14:39:22.320Z,14.07
2023-10-29T14:43:25.319Z,14.12
2023-10-29T14:47:29.782Z,14.11
2023-10-29T14:51:32.403Z,14.14
2023-10-29T14:55:35.016Z,14.03
2023-10-29T14:59:37.784Z,14.09
2023-10-29T15:03:41.919Z,14.12
2023-10-29T15:07:44.613Z,14.13
2023-10-29T15:11:47.677Z,14.07
2023-10-29T15:15:50.456Z,13.97
2023-10-29T15:19:55.360Z,14.04
2023-10-29T15:23:59.252Z,13.94
2023-10-29T15:28:01.850Z,13.92
2023-10-29T15:32:04.953Z,13.87
2023-10-29T15:36:10.583Z,13.83
2023-10-29T15:40:13.634Z,13.81
2023-10-29T15:44:16.368Z,13.80
2023-10-29T15:48:19.102Z,13.76
2023-10-29T15:52:23.612Z,13.65
2023-10-29T15:56:27.573Z,13.58
2023-10-29T16:00:30.487Z,13.55
2023-10-29T16:04:34.682Z,13.56
2023-10-29T16:08:40.016Z,13.60
2023-10-29T16:12:43.766Z,13.50
2023-10-29T16:16:46.380Z,13.42
2023-10-29T16:20:49.106Z,13.49
2023-10-29T16:24:53.056Z,13.53
2023-10-29T16:28:55.657Z,13.54
2023-10-29T16:32:58.363Z,13.47
2023-10-29T16:37:01.431Z,13.45
2023-10-29T16:41:07.594Z,13.39
2023-10-29T16:45:10.905Z,13.41
2023-10-29T16:49:13.498Z,13.32
2023-10-29T16:53:16.083Z,13.32
2023-10-29T16:57:20.278Z,13.36
2023-10-29T17:01:23.437Z,13.31
2023-10-29T17:05:26.095Z,13.27
2023-10-29T17:09:30.609Z,13.23
2023-10-29T17:13:34.591Z,13.25
2023-10-29T17:17:37.250Z,13.25
2023-10-29T17:21:40.132Z,13.27
2023-10-29T17:25:42.814Z,13.26
2023-10-29T17:29:48.536Z,13.34
2023-10-29T17:33:51.624Z,13.37
2023-10-29T17:37:55.173Z,13.40
2023-10-29T17:41:57.786Z,13.48
2023-10-29T17:46:01.792Z,13.52
2023-10-29T17:50:04.572Z,13.54
2023-10-29T17:54:07.615Z,13.53
2023-10-29T17:58:10.325Z,13.55
2023-10-29T18:02:14.248Z,13.53
2023-10-29T18:06:23.336Z,13.58
2023-10-29T18:10:26.925Z,13.57
2023-10-29T18:14:29.637Z,13.44
2023-10-29T18:18:34.011Z,13.41
2023-10-29T18:22:36.786Z,13.23
2023-10-29T18:26:40.271Z,13.06
2023-10-29T18:30:42.913Z,13.03
2023-10-29T18:34:47.215Z,12.92
2023-10-29T18:38:51.196Z,12.80
2023-10-29T18:42:53.807Z,12.73
2023-10-29T18:46:56.394Z,12.70
2023-10-29T18:51:04.303Z,12.69
2023-10-29T18:55:08.095Z,12.75
2023-10-29T18:59:10.652Z,12.73
2023-10-29T19:03:13.451Z,12.70
2023-10-29T19:07:17.527Z,12.72
2023-10-29T19:11:20.134Z,12.41
2023-10-29T19:15:22.769Z,12.10
2023-10-29T19:19:25.421Z,12.05
2023-10-29T19:23:29.557Z,12.14
2023-10-29T19:27:32.234Z,12.09
2023-10-29T19:31:34.917Z,12.05
2023-10-29T19:35:37.553Z,12.07
2023-10-29T19:39:41.500Z,12.11
2023-10-29T19:43:44.168Z,12.05
2023-10-29T19:47:47.095Z,12.07
2023-10-29T19:51:49.802Z,12.10
2023-10-29T19:55:53.982Z,11.98
2023-10-29T19:59:58.379Z,11.88
2023-10-29T20:04:02.975Z,11.87
2023-10-29T20:08:06.205Z,11.82
2023-10-29T20:12:10.357Z,11.79
2023-10-29T20:16:13.135Z,11.59
2023-10-29T20:20:19.051Z,11.47
2023-10-29T20:24:21.788Z,11.41
2023-10-29T20:28:25.872Z,11.31
2023-10-29T20:32:28.581Z,11.30
2023-10-29T20:36:31.360Z,11.18
2023-10-29T20:40:34.040Z,11.22
2023-10-29T20:44:39.043Z,11.17
2023-10-29T20:48:41.665Z,11.05
2023-10-29T20:52:44.778Z,11.02
2023-10-29T20:56:48.396Z,11.07
2023-10-29T21:00:52.692Z,11.29
2023-10-29T21:04:55.412Z,11.33
2023-10-29T21:08:58.526Z,11.45
2023-10-29T21:13:01.942Z,11.49
2023-10-29T21:17:05.843Z,11.56
2023-10-29T21:21:08.371Z,11.54
2023-10-29T21:25:11.065Z,11.60
2023-10-29T21:29:13.683Z,11.64
2023-10-29T21:33:17.672Z,11.68
2023-10-29T21:37:20.759Z,11.60
2023-10-29T21:41:28.074Z,11.58
2023-10-29T21:45:30.713Z,11.40
2023-10-29T21:49:39.392Z,11.48
2023-10-29T21:53:42.126Z,11.57
2023-10-29T21:57:44.782Z,11.46
